createdAt,value
2022-08-26T00:04:18.440Z,18.77
2022-08-26T00:09:22.284Z,18.79
2022-08-26T00:14:30.831Z,18.80
2022-08-26T00:19:33.989Z,18.69
2022-08-26T00:24:36.611Z,18.66
2022-08-26T00:29:39.314Z,18.29
2022-08-26T00:34:42.031Z,18.41
2022-08-26T00:39:44.929Z,18.33
2022-08-26T00:44:48.445Z,18.23
2022-08-26T00:49:53.959Z,18.30
2022-08-26T00:55:20.156Z,18.15
2022-08-26T01:00:27.800Z,18.04
2022-08-26T01:05:30.858Z,17.88
2022-08-26T01:10:33.687Z,17.53
2022-08-26T01:15:42.902Z,17.85
2022-08-26T01:20:48.249Z,17.90
2022-08-26T01:25:59.766Z,17.80
2022-08-26T01:31:05.285Z,17.79
2022-08-26T01:36:08.726Z,17.90
2022-08-26T01:41:16.270Z,17.98
2022-08-26T01:46:24.415Z,18.04
2022-08-26T01:51:28.645Z,17.92
2022-08-26T01:56:33.331Z,17.81
2022-08-26T02:01:40.239Z,17.83
2022-08-26T02:06:44.561Z,17.82
2022-08-26T02:11:47.985Z,17.88
2022-08-26T02:16:53.256Z,17.93
2022-08-26T02:22:03.851Z,17.95
2022-08-26T02:27:06.758Z,17.84
2022-08-26T02:32:10.732Z,18.05
2022-08-26T02:37:14.630Z,18.44
2022-08-26T02:42:20.419Z,18.80
2022-08-26T02:47:24.875Z,18.89
2022-08-26T02:52:28.030Z,18.82
2022-08-26T02:57:31.199Z,18.84
2022-08-26T03:02:33.992Z,18.87
2022-08-26T03:07:36.951Z,19.05
2022-08-26T03:12:41.115Z,19.36
2022-08-26T03:17:44.902Z,19.71
2022-08-26T03:22:47.636Z,20.00
2022-08-26T03:27:52.903Z,20.10
2022-08-26T03:32:55.564Z,20.22
2022-08-26T03:37:58.862Z,20.55
2022-08-26T03:43:03.431Z,20.72
2022-08-26T03:48:06.349Z,21.07
2022-08-26T03:53:09.214Z,21.50
2022-08-26T03:58:16.080Z,22.07
2022-08-26T04:03:42.141Z,22.34
2022-08-26T04:08:45.413Z,22.80
2022-08-26T04:13:49.616Z,23.03
2022-08-26T04:18:52.700Z,23.17
2022-08-26T04:23:55.830Z,23.35
2022-08-26T04:29:01.389Z,23.64
2022-08-26T04:34:06.054Z,23.93
2022-08-26T04:39:12.176Z,24.22
2022-08-26T04:44:15.173Z,24.39
2022-08-26T04:49:18.249Z,24.65
2022-08-26T04:54:21.146Z,24.81
2022-08-26T04:59:24.581Z,24.91
2022-08-26T05:04:27.566Z,24.81
2022-08-26T05:09:32.129Z,25.22
2022-08-26T05:14:35.093Z,25.37
2022-08-26T05:19:38.589Z,25.55
2022-08-26T05:24:46.609Z,26.01
2022-08-26T05:29:54.449Z,26.18
2022-08-26T05:34:57.555Z,26.47
2022-08-26T05:40:04.023Z,26.80
2022-08-26T05:45:07.889Z,27.06
2022-08-26T05:50:10.635Z,27.35
2022-08-26T05:55:14.914Z,27.68
2022-08-26T06:00:19.062Z,27.78
2022-08-26T06:05:22.348Z,27.82
2022-08-26T06:10:33.201Z,28.22
2022-08-26T06:15:42.048Z,28.49
2022-08-26T06:20:57.396Z,28.63
2022-08-26T06:26:01.832Z,28.87
2022-08-26T06:31:06.230Z,29.03
2022-08-26T06:36:09.509Z,29.33
2022-08-26T06:41:12.441Z,29.48
2022-08-26T06:46:21.670Z,29.71
2022-08-26T06:51:27.488Z,29.80
2022-08-26T06:56:42.793Z,29.98
2022-08-26T07:01:45.664Z,30.10
2022-08-26T07:06:52.254Z,30.25
2022-08-26T07:11:56.580Z,30.15
2022-08-26T07:17:02.683Z,30.19
2022-08-26T07:22:06.656Z,30.18
2022-08-26T07:27:15.785Z,30.54
2022-08-26T07:32:22.956Z,30.81
2022-08-26T07:37:26.048Z,30.69
2022-08-26T07:42:28.837Z,30.81
2022-08-26T07:47:31.669Z,30.94
2022-08-26T07:52:35.439Z,31.30
2022-08-26T07:57:39.905Z,31.39
2022-08-26T08:02:45.133Z,31.42
2022-08-26T08:07:49.833Z,31.63
2022-08-26T08:12:58.068Z,31.82
2022-08-26T08:18:04.051Z,31.75
2022-08-26T08:23:07.024Z,31.57
2022-08-26T08:28:10.008Z,31.66
2022-08-26T08:33:13.616Z,31.72
2022-08-26T08:38:16.630Z,31.58
2022-08-26T08:43:44.107Z,31.75
2022-08-26T08:48:52.517Z,31.65
2022-08-26T08:53:58.932Z,31.62
2022-08-26T08:59:13.353Z,31.78
2022-08-26T09:05:00.123Z,31.89
2022-08-26T09:10:24.877Z,31.94
2022-08-26T09:15:44.870Z,32.00
2022-08-26T09:20:59.387Z,32.13
2022-08-26T09:26:29.357Z,32.02
2022-08-26T09:31:36.765Z,32.07
2022-08-26T09:36:46.579Z,32.23
2022-08-26T09:42:07.340Z,32.33
2022-08-26T09:47:10.749Z,32.34
2022-08-26T09:52:21.860Z,32.42
2022-08-26T09:57:30.411Z,32.51
2022-08-26T10:02:33.395Z,32.63
2022-08-26T10:07:49.495Z,32.40
2022-08-26T10:12:56.603Z,32.53
2022-08-26T10:18:25.224Z,32.74
2022-08-26T10:23:32.984Z,32.73
2022-08-26T10:28:46.262Z,32.81
2022-08-26T10:33:51.791Z,32.49
2022-08-26T10:38:55.391Z,32.11
2022-08-26T10:44:00.594Z,32.19
2022-08-26T10:49:14.641Z,32.91
2022-08-26T10:54:39.679Z,33.31
2022-08-26T11:00:38.484Z,33.53
2022-08-26T11:05:41.337Z,33.76
2022-08-26T11:11:00.879Z,33.73
2022-08-26T11:16:03.691Z,33.02
2022-08-26T11:22:06.648Z,33.16
2022-08-26T11:27:12.303Z,32.64
2022-08-26T11:32:44.189Z,32.27
2022-08-26T11:37:53.640Z,32.20
2022-08-26T11:43:05.791Z,32.52
2022-08-26T11:48:20.975Z,33.04
2022-08-26T11:53:26.163Z,32.61
2022-08-26T11:58:29.249Z,32.79
2022-08-26T12:03:39.922Z,33.14
2022-08-26T12:08:45.149Z,33.25
2022-08-26T12:14:00.689Z,33.25
2022-08-26T12:19:22.090Z,32.92
2022-08-26T12:24:28.778Z,32.96
2022-08-26T12:29:31.590Z,33.15
2022-08-26T12:34:34.644Z,33.18
2022-08-26T12:39:40.398Z,33.18
2022-08-26T12:44:53.312Z,33.21
2022-08-26T12:50:08.550Z,33.06
2022-08-26T12:55:47.845Z,32.85
2022-08-26T13:00:51.889Z,32.74
2022-08-26T13:06:08.357Z,32.27
2022-08-26T13:11:23.723Z,32.17
2022-08-26T13:16:27.474Z,32.07
2022-08-26T13:21:37.288Z,32.10
2022-08-26T13:26:41.365Z,32.00
2022-08-26T13:31:45.850Z,31.70
2022-08-26T13:36:51.173Z,31.26
2022-08-26T13:41:54.618Z,30.73
2022-08-26T13:46:57.243Z,30.57
2022-08-26T13:51:59.967Z,30.35
2022-08-26T13:57:02.669Z,30.18
2022-08-26T14:02:05.436Z,30.10
2022-08-26T14:07:08.503Z,30.22
2022-08-26T14:12:11.139Z,30.36
2022-08-26T14:17:19.838Z,30.55
2022-08-26T14:22:22.999Z,30.67
2022-08-26T14:27:25.888Z,30.73
2022-08-26T14:32:29.592Z,30.85
2022-08-26T14:37:33.265Z,30.80
2022-08-26T14:42:36.412Z,30.98
2022-08-26T14:47:39.766Z,30.89
2022-08-26T14:53:03.709Z,30.83
2022-08-26T14:58:06.719Z,30.72
2022-08-26T15:03:09.480Z,30.48
2022-08-26T15:08:13.005Z,30.46
2022-08-26T15:13:15.699Z,30.19
2022-08-26T15:18:18.327Z,30.11
2022-08-26T15:23:21.317Z,29.86
2022-08-26T15:28:24.047Z,29.60
2022-08-26T15:33:26.805Z,29.39
2022-08-26T15:38:34.147Z,29.11
2022-08-26T15:43:37.565Z,29.03
2022-08-26T15:48:40.659Z,28.83
2022-08-26T15:53:43.348Z,28.56
2022-08-26T15:58:46.175Z,28.28
2022-08-26T16:03:49.272Z,28.03
2022-08-26T16:08:51.920Z,27.63
2022-08-26T16:13:55.528Z,27.50
2022-08-26T16:18:58.840Z,27.14
2022-08-26T16:24:01.742Z,26.94
2022-08-26T16:29:08.832Z,26.76
2022-08-26T16:34:11.534Z,26.57
2022-08-26T16:39:14.320Z,26.41
2022-08-26T16:44:17.109Z,26.19
2022-08-26T16:49:19.989Z,25.97
2022-08-26T16:54:22.670Z,25.74
2022-08-26T16:59:25.468Z,25.54
2022-08-26T17:04:29.114Z,25.16
2022-08-26T17:09:32.036Z,24.92
2022-08-26T17:14:35.218Z,24.80
2022-08-26T17:19:41.732Z,24.63
2022-08-26T17:24:49.849Z,24.48
2022-08-26T17:29:52.530Z,24.37
2022-08-26T17:34:55.378Z,24.16
2022-08-26T17:39:58.590Z,24.18
2022-08-26T17:45:02.575Z,24.08
2022-08-26T17:50:10.408Z,24.02
2022-08-26T17:55:15.641Z,24.03
2022-08-26T18:00:21.681Z,23.98
2022-08-26T18:05:24.907Z,23.88
2022-08-26T18:10:27.929Z,23.83
2022-08-26T18:15:30.547Z,23.67
2022-08-26T18:20:33.484Z,23.58
2022-08-26T18:25:41.251Z,23.47
2022-08-26T18:30:44.776Z,23.29
2022-08-26T18:35:47.563Z,23.15
2022-08-26T18:40:50.335Z,23.08
2022-08-26T18:46:02.456Z,22.89
2022-08-26T18:51:06.948Z,22.87
2022-08-26T18:56:14.313Z,22.64
2022-08-26T19:01:23.250Z,22.66
2022-08-26T19:06:32.872Z,22.37
2022-08-26T19:11:37.290Z,22.23
2022-08-26T19:16:43.150Z,22.20
2022-08-26T19:21:47.054Z,22.13
2022-08-26T19:26:57.788Z,22.10
2022-08-26T19:32:02.017Z,21.98
2022-08-26T19:37:05.140Z,21.74
2022-08-26T19:42:07.783Z,21.64
2022-08-26T19:47:12.101Z,21.63
2022-08-26T19:52:15.205Z,21.59
2022-08-26T19:57:18.727Z,21.39
2022-08-26T20:02:21.571Z,21.37
2022-08-26T20:07:24.268Z,21.41
2022-08-26T20:12:27.609Z,21.31
2022-08-26T20:17:30.863Z,21.38
2022-08-26T20:22:33.853Z,21.37
2022-08-26T20:27:38.445Z,21.36
2022-08-26T20:32:42.260Z,21.36
2022-08-26T20:37:44.952Z,21.29
2022-08-26T20:42:48.036Z,21.03
2022-08-26T20:47:51.828Z,20.74
2022-08-26T20:52:55.250Z,20.60
2022-08-26T20:58:17.257Z,20.76
2022-08-26T21:03:20.230Z,20.73
2022-08-26T21:08:23.543Z,20.46
2022-08-26T21:13:27.309Z,20.46
2022-08-26T21:18:31.527Z,20.36
2022-08-26T21:23:36.297Z,19.89
2022-08-26T21:28:41.239Z,19.90
2022-08-26T21:33:43.969Z,20.39
2022-08-26T21:38:47.337Z,20.27
2022-08-26T21:43:53.829Z,20.34
2022-08-26T21:49:00.280Z,20.32
2022-08-26T21:54:10.505Z,20.58
2022-08-26T21:59:17.423Z,20.25
2022-08-26T22:04:20.621Z,20.36
2022-08-26T22:09:26.069Z,20.29
2022-08-26T22:14:30.879Z,20.30
2022-08-26T22:19:45.750Z,20.26
2022-08-26T22:24:49.321Z,20.07
2022-08-26T22:29:52.257Z,19.81
2022-08-26T22:34:54.941Z,19.80
2022-08-26T22:39:57.685Z,19.70
2022-08-26T22:45:02.270Z,19.66
2022-08-26T22:50:07.326Z,19.66
2022-08-26T22:55:11.170Z,19.53
2022-08-26T23:00:14.569Z,19.60
2022-08-26T23:05:17.867Z,19.67
2022-08-26T23:10:20.767Z,19.87
2022-08-26T23:15:23.599Z,19.84
2022-08-26T23:20:28.084Z,19.75
2022-08-26T23:25:32.569Z,19.54
2022-08-26T23:30:35.319Z,19.53
2022-08-26T23:35:38.800Z,19.43
2022-08-26T23:40:44.157Z,19.25
2022-08-26T23:45:47.032Z,19.15
2022-08-26T23:51:08.574Z,19.06
2022-08-26T23:56:16.104Z,18.84
